Flight Track Log - Related Links

Times and Time Zones

All times are in EST time to prevent confusion due to time zone crossing. See the N400PU flight status page for this flight to view local times or setup timezone preferences in your user account.


Time Position Orientation Groundspeed Altitude Reporting Facility
EST Latitude Longitude Course Direction KTS MPH feet Rate Location/Type
Thu 02:58:21 PM 40.8275 -77.9075 270° West 453 521 4,200  Level New York Center
Thu 02:59:17 PM 40.8264 -77.9858 269° West 225 259 7,100 1,932 Climbing Cleveland Center
Thu 03:00:19 PM 40.8275 -78.0636 271° West 239 275 8,000 1,016 Climbing Cleveland Center
Thu 03:01:21 PM 40.8278 -78.1700 270° West 242 278 9,200 1,597 Climbing Cleveland Center
Thu 03:02:00 PM 40.8424 -78.4591 270° West  Level Estimated
Thu 03:02:23 PM 40.8292 -78.2608 271° West 247 284 11,300  Level Cleveland Center
Thu 03:03:00 PM 40.8406 -78.5811 270° West  Level Estimated
Thu 03:03:26 PM 40.8297 -78.3575 270° West 261 300 13,500  Level Cleveland Center
Thu 03:04:28 PM 40.8308 -78.4561 271° West 267 307 15,700 2,032 Climbing Cleveland Center
Thu 03:05:30 PM 40.8308 -78.5506 270° West 258 297 17,700 1,548 Climbing Cleveland Center
Thu 03:06:32 PM 40.8308 -78.6475 270° West 262 302 18,900 1,500 Climbing Cleveland Center
Thu 03:07:34 PM 40.8314 -78.7814 270° West 300 345 20,800 1,742 Climbing Cleveland Center
Thu 03:08:36 PM 40.8308 -78.9008 270° West 321 369 22,500 1,500 Climbing Cleveland Center
Thu 03:09:38 PM 40.8322 -79.0089 271° West 330 380 23,900 1,548 Climbing Cleveland Center
Thu 03:10:40 PM 40.8325 -79.1536 270° West 331 381 25,700 1,597 Climbing Cleveland Center
Thu 03:11:42 PM 40.8317 -79.2750 270° West 332 382 27,200 1,452 Climbing Cleveland Center
Thu 03:12:44 PM 40.8311 -79.3950 270° West 331 381 28,700 1,344 Climbing Cleveland Center
Thu 03:13:47 PM 40.8308 -79.5150 270° West 329 379 30,000 1,152 Climbing Cleveland Center
Thu 03:14:49 PM 40.8311 -79.6367 270° West 334 384 31,100 1,113 Climbing Cleveland Center
Thu 03:15:51 PM 40.8297 -79.7597 269° West 337 388 32,300 1,210 Climbing Cleveland Center
Thu 03:16:53 PM 40.8281 -79.9072 269° West 338 389 33,600 823 Climbing Cleveland Center
Thu 03:17:55 PM 40.8272 -80.0206 269° West 336 387 34,000 194 Climbing Cleveland Center
Thu 03:18:57 PM 40.8264 -80.1756 270° West 352 405 34,000  Level Cleveland Center
Thu 03:19:59 PM 40.8225 -80.3039 268° West 351 404 34,000 145 Level Cleveland Center
Thu 03:21:01 PM 40.8181 -80.4311 267° West 348 400 34,300 532 Climbing Cleveland Center
Thu 03:22:03 PM 40.8133 -80.5569 267° West 342 394 35,100 823 Climbing Cleveland Center
Thu 03:23:05 PM 40.8094 -80.6800 268° West 334 384 36,000 432 Climbing Cleveland Center
Thu 03:24:08 PM 40.8033 -80.8069 266° West 339 390 36,000  Level Cleveland Center
Thu 03:25:10 PM 40.7983 -80.9339 267° West 346 398 36,000  Level Cleveland Center
Thu 03:26:12 PM 40.7906 -81.0856 266° West 349 402 36,000  Level Cleveland Center
Thu 03:27:14 PM 40.7850 -81.2133 267° West 347 399 36,000  Level Cleveland Center
Thu 03:28:16 PM 40.7792 -81.3422 267° West 347 399 36,000  Level Cleveland Center
Thu 03:29:18 PM 40.7717 -81.4717 266° West 349 402 36,000  Level Cleveland Center
Thu 03:30:20 PM 40.7661 -81.6014 267° West 351 404 36,000  Level Cleveland Center
Thu 03:31:22 PM 40.7594 -81.7317 266° West 351 404 36,000  Level Cleveland Center
Thu 03:32:25 PM 40.7539 -81.8622 267° West 353 406 36,000  Level Cleveland Center
Thu 03:33:27 PM 40.7464 -81.9939 266° West 355 409 36,000  Level Cleveland Center
Thu 03:34:29 PM 40.7378 -82.1444 266° West 349 402 36,000  Level Cleveland Center
Thu 03:35:13 PM 40.7333 -82.2303 266° West 346 398 36,000  Level Indianapolis Center
Thu 03:36:15 PM 40.7269 -82.3581 266° West 346 398 36,000  Level Indianapolis Center
Thu 03:37:17 PM 40.7186 -82.4850 265° West 344 396 36,000  Level Indianapolis Center
Thu 03:38:19 PM 40.7117 -82.6133 266° West 346 398 36,000  Level Indianapolis Center
Thu 03:39:22 PM 40.7039 -82.7397 265° West 344 396 36,000  Level Indianapolis Center
Thu 03:40:24 PM 40.6953 -82.8892 266° West 347 399 36,000  Level Indianapolis Center
Thu 03:41:26 PM 40.6886 -83.0172 266° West 348 400 36,000  Level Indianapolis Center
Thu 03:42:28 PM 40.6806 -83.1439 265° West 344 396 36,000  Level Indianapolis Center
Thu 03:43:30 PM 40.6725 -83.2753 265° West 349 402 36,000  Level Indianapolis Center
Thu 03:44:32 PM 40.6639 -83.4003 265° West 346 398 36,000 -242 Level Indianapolis Center
Thu 03:45:34 PM 40.6558 -83.5219 265° West 338 389 35,500 -823 Descending Indianapolis Center
Thu 03:46:36 PM 40.6475 -83.6483 265° West 347 399 34,300 -1,452 Descending Indianapolis Center
Thu 03:47:38 PM 40.6372 -83.8014 265° West 352 405 32,500 -1,935 Descending Indianapolis Center
Thu 03:48:40 PM 40.6289 -83.9333 265° West 363 418 30,300 -2,129 Descending Indianapolis Center
Thu 03:49:42 PM 40.6183 -84.0700 264° West 376 433 28,100 -1,790 Descending Indianapolis Center
Thu 03:50:44 PM 40.6078 -84.2111 264° West 389 448 26,600 -1,488 Descending Indianapolis Center
Thu 03:51:47 PM 40.5981 -84.3556 265° West 396 456 25,000 -1,680 Descending Indianapolis Center
Thu 03:52:49 PM 40.5844 -84.5283 264° West 399 459 23,100 -968 Descending Indianapolis Center
Thu 03:53:51 PM 40.5753 -84.6692 265° West 390 449 23,000 -48 Descending Indianapolis Center
Thu 03:54:53 PM 40.5631 -84.8111 264° West 392 451 23,000  Level Indianapolis Center
Thu 03:55:55 PM 40.5525 -84.9511 264° West 376 433 23,000  Level Indianapolis Center
Thu 03:56:57 PM 40.5419 -85.0894 264° West 382 440 23,000  Level Indianapolis Center
Thu 03:58:04 PM 40.5289 -85.2539 264° West 381 438 23,000 -558 Level Chicago Center
Thu 03:59:06 PM 40.5169 -85.3919 264° West 383 441 21,800 -1,306 Descending Chicago Center
Thu 04:00:08 PM 40.5058 -85.5275 264° West 378 435 20,300 -1,452 Descending Chicago Center
Thu 04:01:10 PM 40.4953 -85.6592 264° West 366 421 18,800 -1,258 Descending Chicago Center
Thu 04:02:12 PM 40.4856 -85.7886 264° West 360 414 17,700 -1,403 Descending Chicago Center
Thu 04:03:14 PM 40.4856 -85.9361 270° West 344 396 15,900 -1,645 Descending Chicago Center
Thu 04:04:16 PM 40.5047 -86.0597 282° West 347 399 14,300 -1,605 Descending Chicago Center
Thu 04:04:40 PM 40.5147 -86.1228 282° West 352 405 13,600 -1,429 Descending Chicago Center
Thu 04:05:19 PM 40.5119 -86.1842 267° West 350 403 12,800 -1,571 Descending Chicago Center
Thu 04:05:22 PM 40.5081 -86.2017 254° West 332 382 12,500 -1,742 Descending Chicago Center
Thu 04:06:21 PM 40.4964 -86.2992 261° West 326 375 11,000 -1,475 Descending Chicago Center
Thu 04:06:23 PM 40.4936 -86.3236 262° West 322 371 11,000 -774 Level Chicago Center
Thu 04:07:23 PM 40.4778 -86.4158 257° West 247 284 10,200 -1,623 Descending Chicago Center
Thu 04:08:25 PM 40.4528 -86.4892 246° West 217 250 7,700 -2,507 Descending Chicago Center
Thu 04:08:30 PM 40.4500 -86.4961 242° Southwest 192 221 7,400 -2,903 Descending Chicago Center
Thu 04:09:27 PM 40.4286 -86.5578 246° West 211 243 4,700 -2,852 Descending Chicago Center
Thu 04:09:31 PM 40.4244 -86.5683 243° Southwest 205 236 4,500 -1,031 Descending Chicago Center
Thu 04:10:31 PM 40.4036 -86.6269 245° Southwest 185 213 3,600 -750 Descending Chicago Center
Thu 04:11:31 PM 40.3861 -86.6761 245° Southwest 190 219 3,000 -689 Descending Chicago Center
Thu 04:11:32 PM 40.3828 -86.6831 238° Southwest 159 183 2,900 -295 Descending Chicago Center
Thu 04:12:32 PM 40.3892 -86.7408 278° West 165 190 2,700 -197 Descending Chicago Center
Thu 04:12:33 PM 40.3883 -86.7306 96° East 169 194 2,700 -98 Level Chicago Center
Thu 04:13:33 PM 40.3950 -86.8014 277° West 157 181 2,600 -194 Descending Chicago Center
Thu 04:13:35 PM 40.3956 -86.8006 49° Northeast 163 188 2,500 -787 Descending Chicago Center
Thu 04:14:34 PM 40.4017 -86.8508 279° West 140 161 1,800 -387 Descending Chicago Center
Thu 04:14:37 PM 40.4019 -86.8503 57° Northeast 161 185 2,100 -600 Climbing Chicago Center
Thu 04:15:34 PM 40.4061 -86.8947 277° West 110 127 1,200 -947 Descending Chicago Center
Thu 04:17:00 PM 40.4000 -86.9333 255° West  Level FlightAware Approximate

Login

Don't have an account? Register now (free) for customized features, flight alerts, and more!